Погода Дакарна 2 недели

Дакар, Сенегал

02 - 15 марта
  • 02марта
    Сегодня
    +19°
    +26°
    Небольшая облачность
    ВремяПогодаТемператураВлажностьДавлениеВетер, м/сВероятность осадков
    00:00Ясно и безоблачно+21°C87 %756 мм4.7 м/с1 %
    03:00Ясно и безоблачно+21°C88 %755 мм4.8 м/с1 %
    06:00Ясно и безоблачно+21°C80 %755 мм5.5 м/с1 %
    09:00Ясно и безоблачно+23°C74 %756 мм6.0 м/с1 %
    12:00Ясно и безоблачно+25°C67 %757 мм7.3 м/с1 %
    15:00Небольшая облачность+26°C65 %756 мм8.1 м/с1 %
    18:00Ясно и безоблачно+23°C76 %756 мм6.9 м/с1 %
    21:00Облачно с прояснениями+21°C83 %757 мм6.6 м/с1 %
  • 03марта
    Воскресенье
    +20°
    +26°
    Ясно и безоблачно
    ВремяПогодаТемператураВлажностьДавлениеВетер, м/сВероятность осадков
    00:00Ясно и безоблачно+21°C81 %757 мм6.0 м/с1 %
    03:00Ясно и безоблачно+20°C80 %756 мм5.7 м/с1 %
    06:00Ясно и безоблачно+20°C82 %756 мм6.4 м/с1 %
    09:00Ясно и безоблачно+22°C80 %758 мм6.4 м/с1 %
    12:00Ясно и безоблачно+25°C65 %758 мм8.1 м/с1 %
    15:00Ясно и безоблачно+26°C51 %756 мм8.5 м/с1 %
    18:00Ясно и безоблачно+23°C58 %756 мм7.0 м/с1 %
    21:00Ясно и безоблачно+21°C71 %757 мм6.1 м/с1 %
  • 04марта
    Понедельник
    +20°
    +28°
    Ясно и безоблачно
    ВремяПогодаТемператураВлажностьДавлениеВетер, м/сВероятность осадков
    00:00Ясно и безоблачно+21°C74 %757 мм5.5 м/с1 %
    03:00Ясно и безоблачно+20°C75 %756 мм5.2 м/с1 %
    06:00Ясно и безоблачно+20°C76 %756 мм5.7 м/с1 %
    09:00Ясно и безоблачно+22°C66 %758 мм5.5 м/с1 %
    12:00Ясно и безоблачно+26°C37 %758 мм6.6 м/с1 %
    15:00Ясно и безоблачно+27°C39 %756 мм7.4 м/с1 %
    18:00Ясно и безоблачно+24°C55 %755 мм6.3 м/с1 %
    21:00Ясно и безоблачно+22°C69 %756 мм5.6 м/с1 %
  • 05марта
    Вторник
    +20°
    +28°
    Ясно и безоблачно
    ВремяПогодаТемператураВлажностьДавлениеВетер, м/сВероятность осадков
    00:00Ясно и безоблачно+21°C72 %757 мм4.9 м/с1 %
    03:00Ясно и безоблачно+21°C68 %756 мм5.2 м/с1 %
    06:00Ясно и безоблачно+21°C66 %756 мм5.4 м/с1 %
    09:00Ясно и безоблачно+23°C55 %757 мм5.4 м/с1 %
    12:00Ясно и безоблачно+27°C36 %757 мм6.7 м/с1 %
    15:00Ясно и безоблачно+28°C37 %755 мм6.8 м/с1 %
    18:00Практически безоблачно+25°C52 %754 мм5.8 м/с1 %
    21:00Практически безоблачно+22°C68 %756 мм5.2 м/с1 %
  • 06марта
    Среда
    +20°
    +27°
    Облачно с прояснениями
    ВремяПогодаТемператураВлажностьДавлениеВетер, м/сВероятность осадков
    00:00Небольшая облачность+21°C77 %757 мм4.4 м/с1 %
    03:00Небольшая облачность+21°C81 %756 мм4.8 м/с1 %
    06:00Облачно с прояснениями+21°C81 %756 мм5.4 м/с1 %
    09:00Небольшая облачность+23°C74 %757 мм5.4 м/с1 %
    12:00Небольшая облачность+26°C61 %757 мм6.8 м/с1 %
    15:00Облачно с прояснениями+26°C58 %755 мм7.7 м/с1 %
    18:00Небольшая облачность+24°C70 %755 мм6.3 м/с1 %
    21:00Практически безоблачно+21°C82 %756 мм5.7 м/с1 %
Мы используем cookies
Соглашаюсь